Cudjoe Key, Florida
Current Conditions -  °F | °C
As of 11:53 PM on Sunday 19 Oct 2014 (Local Time) from KNQX Reporting Station
Clear Clear  
Wind Chill: 76°   Ceiling: Unl
Heat Index: 76°   Visibility: 10mi
Dew Point: 67°   Wind: 7mph
Humidity: 74%   Direction: 110°ESE
Pressure: 30"   Gusts: NA
Location:  24.6465°N, 81.5399°W
Report Text: KNQX 200353Z AUTO 11006KT 10SM CLR 24/19 A3000 RMK AO2 SLP157 T02440194 $
Loading
Personal Weather Stations






























Interactive Weather Map
Tropical Storm Tracking
New forecast layout! Learn more

10-Day Weather Forecast

Advertisements
Track Severe Weather on mobile